createdAt,value
2022-08-03T00:02:08.685Z,20.30
2022-08-03T00:04:54.106Z,20.30
2022-08-03T00:07:40.152Z,20.20
2022-08-03T00:10:25.261Z,20.20
2022-08-03T00:13:12.930Z,20.10
2022-08-03T00:15:58.420Z,20.10
2022-08-03T00:18:44.167Z,20.10
2022-08-03T00:21:29.660Z,20.10
2022-08-03T00:24:15.024Z,20.00
2022-08-03T00:27:00.306Z,20.00
2022-08-03T00:30:00.188Z,20.00
2022-08-03T00:32:46.229Z,20.00
2022-08-03T00:35:49.217Z,19.90
2022-08-03T00:38:35.818Z,19.90
2022-08-03T00:41:21.268Z,19.90
2022-08-03T00:44:06.735Z,18.30
2022-08-03T00:46:52.111Z,19.80
2022-08-03T00:49:39.036Z,18.80
2022-08-03T00:52:26.240Z,19.80
2022-08-03T00:55:12.186Z,19.80
2022-08-03T00:57:59.475Z,19.80
2022-08-03T01:00:44.527Z,19.70
2022-08-03T01:03:29.960Z,19.60
2022-08-03T01:06:25.610Z,19.60
2022-08-03T01:09:52.530Z,19.60
2022-08-03T01:12:58.033Z,19.50
2022-08-03T01:16:15.460Z,19.40
2022-08-03T01:19:30.607Z,19.40
2022-08-03T01:22:22.286Z,19.40
2022-08-03T01:25:36.361Z,19.30
2022-08-03T01:28:58.440Z,19.20
2022-08-03T01:32:52.496Z,19.20
2022-08-03T01:35:08.946Z,19.10
2022-08-03T01:38:04.029Z,19.00
2022-08-03T01:40:53.883Z,19.10
2022-08-03T01:44:27.547Z,19.00
2022-08-03T01:46:51.243Z,19.00
2022-08-03T01:49:43.195Z,18.90
2022-08-03T01:52:30.533Z,18.90
2022-08-03T01:55:19.178Z,18.90
2022-08-03T01:58:06.950Z,18.90
2022-08-03T02:00:57.992Z,18.90
2022-08-03T02:03:59.709Z,18.80
2022-08-03T02:07:02.889Z,18.80
2022-08-03T02:09:52.525Z,18.80
2022-08-03T02:12:39.767Z,18.80
2022-08-03T02:15:26.387Z,18.80
2022-08-03T02:18:12.140Z,17.70
2022-08-03T02:20:58.673Z,18.70
2022-08-03T02:23:44.296Z,18.70
2022-08-03T02:26:30.539Z,18.60
2022-08-03T02:29:20.757Z,18.60
2022-08-03T02:32:31.238Z,18.60
2022-08-03T02:35:18.488Z,18.60
2022-08-03T02:38:08.087Z,18.70
2022-08-03T02:40:57.027Z,18.60
2022-08-03T02:44:06.359Z,18.60
2022-08-03T02:46:56.996Z,18.60
2022-08-03T02:49:51.483Z,18.60
2022-08-03T02:52:38.505Z,18.50
2022-08-03T02:55:26.131Z,18.50
2022-08-03T02:58:14.495Z,18.50
2022-08-03T03:01:01.823Z,18.40
2022-08-03T03:03:47.891Z,18.40
2022-08-03T03:06:33.765Z,18.40
2022-08-03T03:09:19.883Z,18.40
2022-08-03T03:12:08.006Z,18.40
2022-08-03T03:14:53.624Z,18.30
2022-08-03T03:17:39.527Z,18.40
2022-08-03T03:20:29.861Z,18.40
2022-08-03T03:23:17.394Z,18.30
2022-08-03T03:26:03.649Z,18.30
2022-08-03T03:28:49.913Z,18.30
2022-08-03T03:31:36.586Z,18.20
2022-08-03T03:34:22.169Z,18.20
2022-08-03T03:37:09.228Z,18.20
2022-08-03T03:39:55.073Z,18.20
2022-08-03T03:42:40.493Z,18.20
2022-08-03T03:45:27.315Z,18.20
2022-08-03T03:48:12.874Z,18.20
2022-08-03T03:50:59.230Z,18.10
2022-08-03T03:54:00.725Z,18.10
2022-08-03T03:56:46.281Z,18.10
2022-08-03T03:59:31.749Z,18.10
2022-08-03T04:02:21.361Z,18.20
2022-08-03T04:05:26.327Z,18.10
2022-08-03T04:08:37.066Z,18.10
2022-08-03T04:11:30.118Z,18.10
2022-08-03T04:14:26.709Z,18.10
2022-08-03T04:17:13.581Z,18.10
2022-08-03T04:20:02.979Z,18.10
2022-08-03T04:22:51.249Z,18.10
2022-08-03T04:25:39.913Z,18.10
2022-08-03T04:28:31.406Z,18.10
2022-08-03T04:31:20.373Z,18.10
2022-08-03T04:34:06.223Z,18.10
2022-08-03T04:36:57.941Z,18.20
2022-08-03T04:39:44.800Z,18.20
2022-08-03T04:42:33.104Z,18.30
2022-08-03T04:45:20.642Z,18.40
2022-08-03T04:48:07.060Z,18.40
2022-08-03T04:50:53.518Z,18.40
2022-08-03T04:53:38.893Z,18.40
2022-08-03T04:56:24.167Z,18.40
2022-08-03T04:59:10.788Z,18.40
2022-08-03T05:01:56.381Z,20.00
2022-08-03T05:04:46.430Z,18.40
2022-08-03T05:07:35.606Z,18.40
2022-08-03T05:10:22.337Z,18.50
2022-08-03T05:13:12.034Z,18.50
2022-08-03T05:15:57.398Z,18.50
2022-08-03T05:18:43.692Z,18.50
2022-08-03T05:21:52.113Z,18.60
2022-08-03T05:24:35.011Z,18.60
2022-08-03T05:27:20.154Z,18.60
2022-08-03T05:30:29.652Z,18.70
2022-08-03T05:33:11.561Z,18.70
2022-08-03T05:36:03.518Z,18.80
2022-08-03T05:38:49.829Z,18.80
2022-08-03T05:41:36.489Z,18.90
2022-08-03T05:44:25.437Z,19.00
2022-08-03T05:47:10.766Z,19.10
2022-08-03T05:49:56.271Z,19.10
2022-08-03T05:52:43.056Z,19.20
2022-08-03T05:55:28.665Z,19.20
2022-08-03T05:58:14.037Z,19.20
2022-08-03T06:00:59.529Z,19.30
2022-08-03T06:03:46.047Z,19.40
2022-08-03T06:06:32.419Z,19.50
2022-08-03T06:09:18.319Z,19.60
2022-08-03T06:12:04.262Z,19.70
2022-08-03T06:14:49.683Z,19.80
2022-08-03T06:17:37.053Z,19.90
2022-08-03T06:20:27.284Z,20.00
2022-08-03T06:23:17.835Z,20.10
2022-08-03T06:26:04.542Z,20.20
2022-08-03T06:28:52.179Z,20.40
2022-08-03T06:31:39.025Z,20.50
2022-08-03T06:34:34.262Z,20.50
2022-08-03T06:37:21.160Z,20.60
2022-08-03T06:40:06.849Z,20.70
2022-08-03T06:42:51.991Z,20.80
2022-08-03T06:45:37.624Z,20.90
2022-08-03T06:48:22.929Z,21.00
2022-08-03T06:51:08.544Z,21.10
2022-08-03T06:53:54.055Z,21.20
2022-08-03T06:56:39.528Z,21.30
2022-08-03T07:00:06.177Z,21.50
2022-08-03T07:02:30.533Z,21.60
2022-08-03T07:05:15.901Z,21.70
2022-08-03T07:08:03.076Z,21.90
2022-08-03T07:10:48.511Z,21.90
2022-08-03T07:13:33.941Z,22.00
2022-08-03T07:16:19.452Z,22.30
2022-08-03T07:19:04.874Z,22.40
2022-08-03T07:21:50.290Z,22.60
2022-08-03T07:24:39.318Z,22.70
2022-08-03T07:27:26.937Z,22.90
2022-08-03T07:30:13.492Z,23.10
2022-08-03T07:32:59.113Z,23.10
2022-08-03T07:35:44.500Z,23.30
2022-08-03T07:38:30.027Z,23.40
2022-08-03T07:41:15.266Z,23.50
2022-08-03T07:44:00.612Z,23.70
2022-08-03T07:46:46.952Z,23.70
2022-08-03T07:49:32.479Z,23.80
2022-08-03T07:52:36.423Z,24.10
2022-08-03T07:55:24.999Z,24.30
2022-08-03T07:58:16.510Z,24.40
2022-08-03T08:01:04.651Z,24.60
2022-08-03T08:03:52.741Z,24.70
2022-08-03T08:06:39.016Z,24.90
2022-08-03T08:09:25.515Z,25.00
2022-08-03T08:12:15.163Z,25.20
2022-08-03T08:15:01.279Z,25.10
2022-08-03T08:17:48.364Z,25.30
2022-08-03T08:20:36.553Z,25.40
2022-08-03T08:23:37.904Z,25.40
2022-08-03T08:26:28.939Z,25.50
2022-08-03T08:29:14.288Z,25.60
2022-08-03T08:31:59.750Z,25.70
2022-08-03T08:34:45.164Z,25.80
2022-08-03T08:37:30.766Z,25.90
2022-08-03T08:40:16.261Z,26.00
2022-08-03T08:43:02.239Z,26.20
2022-08-03T08:45:50.230Z,26.20
2022-08-03T08:48:38.924Z,26.20
2022-08-03T08:51:50.570Z,26.30
2022-08-03T08:54:36.944Z,26.30
2022-08-03T08:57:42.353Z,26.30
2022-08-03T09:00:30.756Z,26.30
2022-08-03T09:03:29.235Z,26.50
2022-08-03T09:06:16.263Z,26.70
2022-08-03T09:09:01.499Z,26.80
2022-08-03T09:11:54.542Z,26.80
2022-08-03T09:15:07.238Z,26.90
2022-08-03T09:17:54.719Z,26.90
2022-08-03T09:20:40.278Z,27.00
2022-08-03T09:23:51.408Z,27.20
2022-08-03T09:26:53.586Z,27.30
2022-08-03T09:29:39.185Z,27.40
2022-08-03T09:32:25.188Z,27.50
2022-08-03T09:35:11.845Z,27.60
2022-08-03T09:38:13.470Z,27.60
2022-08-03T09:41:00.779Z,27.70
2022-08-03T09:43:47.071Z,27.80
2022-08-03T09:46:50.177Z,28.00
2022-08-03T09:49:36.629Z,28.00
2022-08-03T09:52:38.954Z,28.00
2022-08-03T09:56:33.042Z,27.90
2022-08-03T09:58:47.241Z,27.90
2022-08-03T10:01:37.338Z,28.20
2022-08-03T10:04:23.975Z,28.20
2022-08-03T10:07:10.949Z,28.30
2022-08-03T10:10:31.691Z,28.30
2022-08-03T10:13:07.344Z,28.30
2022-08-03T10:16:22.592Z,28.50
2022-08-03T10:18:58.036Z,28.60
2022-08-03T10:22:06.296Z,28.80
2022-08-03T10:25:10.841Z,28.50
2022-08-03T10:28:04.306Z,28.60
2022-08-03T10:30:52.714Z,28.80
2022-08-03T10:33:51.012Z,28.90
2022-08-03T10:36:39.892Z,29.00
2022-08-03T10:39:29.587Z,29.10
2022-08-03T10:42:14.983Z,29.20
2022-08-03T10:45:06.858Z,29.20
2022-08-03T10:47:54.926Z,29.00
2022-08-03T10:50:44.163Z,29.10
2022-08-03T10:53:43.245Z,29.10
2022-08-03T10:57:07.202Z,29.30
2022-08-03T11:00:02.771Z,29.20
2022-08-03T11:03:06.112Z,29.40
2022-08-03T11:05:54.355Z,29.80
2022-08-03T11:08:39.764Z,30.10
2022-08-03T11:11:28.334Z,30.40
2022-08-03T11:14:17.807Z,30.10
2022-08-03T11:17:14.093Z,30.50
2022-08-03T11:20:00.244Z,30.20
2022-08-03T11:22:51.413Z,30.40
2022-08-03T11:26:08.574Z,30.70
2022-08-03T11:28:53.595Z,30.80
2022-08-03T11:31:49.681Z,30.60
2022-08-03T11:35:07.910Z,30.40
2022-08-03T11:38:05.112Z,30.60
2022-08-03T11:40:52.826Z,30.80
2022-08-03T11:43:47.133Z,30.90
2022-08-03T11:46:37.746Z,30.70
2022-08-03T11:49:23.995Z,30.60
2022-08-03T11:52:09.690Z,30.60
2022-08-03T11:54:57.181Z,30.50
2022-08-03T11:59:01.235Z,30.30
2022-08-03T12:00:50.474Z,30.40
2022-08-03T12:03:36.292Z,30.70
2022-08-03T12:06:22.143Z,30.80
2022-08-03T12:09:16.014Z,30.70
2022-08-03T12:12:01.699Z,30.90
2022-08-03T12:14:50.980Z,31.00
2022-08-03T12:17:40.890Z,31.20
2022-08-03T12:20:35.268Z,31.20
2022-08-03T12:23:20.906Z,31.20
2022-08-03T12:26:09.696Z,31.20
2022-08-03T12:28:55.118Z,30.90
2022-08-03T12:31:40.388Z,31.10
2022-08-03T12:34:47.383Z,31.40
2022-08-03T12:37:33.436Z,31.60
2022-08-03T12:40:28.316Z,31.80
2022-08-03T12:43:14.633Z,31.90
2022-08-03T12:46:15.056Z,31.80
2022-08-03T12:49:15.381Z,31.60
2022-08-03T12:52:06.937Z,31.10
2022-08-03T12:55:00.190Z,31.50
2022-08-03T12:57:45.804Z,31.50
2022-08-03T13:00:31.343Z,31.50
2022-08-03T13:03:38.876Z,31.70
2022-08-03T13:06:26.447Z,31.70
2022-08-03T13:09:11.899Z,31.70
2022-08-03T13:12:08.400Z,31.60
2022-08-03T13:14:56.936Z,31.50
2022-08-03T13:17:42.951Z,31.80
2022-08-03T13:20:28.708Z,31.90
2022-08-03T13:23:22.090Z,31.50
2022-08-03T13:26:08.152Z,31.60
2022-08-03T13:28:53.300Z,31.90
2022-08-03T13:31:38.801Z,31.90
2022-08-03T13:34:36.918Z,31.70
2022-08-03T13:37:22.527Z,31.60
2022-08-03T13:40:08.582Z,31.80
2022-08-03T13:42:56.991Z,33.20
2022-08-03T13:45:47.542Z,32.10
2022-08-03T13:48:36.953Z,32.40
2022-08-03T13:51:23.483Z,32.50
2022-08-03T13:54:08.877Z,32.70
2022-08-03T13:56:58.963Z,32.70
2022-08-03T13:59:49.664Z,32.70
2022-08-03T14:02:35.191Z,32.30
2022-08-03T14:05:20.626Z,32.20
2022-08-03T14:08:07.307Z,32.10
2022-08-03T14:10:52.749Z,32.20
2022-08-03T14:13:38.219Z,32.20
2022-08-03T14:16:23.611Z,32.80
2022-08-03T14:19:08.952Z,34.30
2022-08-03T14:22:03.711Z,35.80
2022-08-03T14:24:51.983Z,37.10
2022-08-03T14:27:38.499Z,39.20
2022-08-03T14:30:24.020Z,39.70
2022-08-03T14:33:09.467Z,40.40
2022-08-03T14:35:55.348Z,41.40
2022-08-03T14:38:40.711Z,41.90
2022-08-03T14:41:26.223Z,41.80
2022-08-03T14:44:11.599Z,42.30
2022-08-03T14:46:57.108Z,41.50
2022-08-03T14:50:36.015Z,41.80
2022-08-03T14:52:48.585Z,43.30
2022-08-03T14:55:38.906Z,44.30
2022-08-03T14:58:35.131Z,44.20
2022-08-03T15:02:03.368Z,44.00
2022-08-03T15:04:25.524Z,44.20
2022-08-03T15:07:10.995Z,45.00
2022-08-03T15:09:56.376Z,43.60
2022-08-03T15:12:41.739Z,44.20
2022-08-03T15:15:27.157Z,43.70
2022-08-03T15:18:12.689Z,43.60
2022-08-03T15:20:58.164Z,43.50
2022-08-03T15:23:43.524Z,42.30
2022-08-03T15:26:36.453Z,44.40
2022-08-03T15:30:08.168Z,43.90
2022-08-03T15:32:29.817Z,43.40
2022-08-03T15:35:15.225Z,41.90
2022-08-03T15:38:00.753Z,43.00
2022-08-03T15:40:46.172Z,44.00
2022-08-03T15:43:31.490Z,44.30
2022-08-03T15:46:29.152Z,43.90
2022-08-03T15:49:15.218Z,44.00
2022-08-03T15:52:01.172Z,45.40
2022-08-03T15:54:46.586Z,45.40
2022-08-03T15:57:32.011Z,43.50
2022-08-03T16:00:17.502Z,44.90
2022-08-03T16:03:03.965Z,44.90
2022-08-03T16:05:49.357Z,44.20
2022-08-03T16:08:34.998Z,45.10
2022-08-03T16:11:20.435Z,44.60
2022-08-03T16:14:32.020Z,43.20
2022-08-03T16:17:11.503Z,44.00
2022-08-03T16:19:56.907Z,44.00
2022-08-03T16:22:48.106Z,42.70
2022-08-03T16:25:34.101Z,42.60
2022-08-03T16:28:20.054Z,42.10
2022-08-03T16:31:06.159Z,42.90
2022-08-03T16:33:51.676Z,43.00
2022-08-03T16:36:37.617Z,43.40
2022-08-03T16:39:24.139Z,42.10
2022-08-03T16:42:09.495Z,42.20
2022-08-03T16:44:55.015Z,40.90
2022-08-03T16:47:40.520Z,41.20
2022-08-03T16:50:25.818Z,40.10
2022-08-03T16:53:15.503Z,38.90
2022-08-03T16:56:04.603Z,37.70
2022-08-03T16:58:54.870Z,36.90
2022-08-03T17:01:40.813Z,36.90
2022-08-03T17:04:27.151Z,36.90
2022-08-03T17:07:14.326Z,36.30
2022-08-03T17:10:00.925Z,35.90
2022-08-03T17:12:46.324Z,35.50
2022-08-03T17:15:37.962Z,35.10
2022-08-03T17:18:47.331Z,34.90
2022-08-03T17:21:39.074Z,34.70
2022-08-03T17:24:32.573Z,34.60
2022-08-03T17:28:42.190Z,34.40
2022-08-03T17:30:54.959Z,34.20
2022-08-03T17:33:40.730Z,34.00
2022-08-03T17:37:03.149Z,34.00
2022-08-03T17:39:58.882Z,32.30
2022-08-03T17:42:50.441Z,33.80
2022-08-03T17:45:52.396Z,33.60
2022-08-03T17:48:41.503Z,33.40
2022-08-03T17:51:46.424Z,33.40
2022-08-03T17:55:56.879Z,33.40
2022-08-03T17:58:03.327Z,33.30
2022-08-03T18:01:59.995Z,33.20
2022-08-03T18:04:21.559Z,33.00
2022-08-03T18:07:18.133Z,32.80
2022-08-03T18:10:11.530Z,32.70
2022-08-03T18:13:13.979Z,32.60
2022-08-03T18:16:02.235Z,32.50
2022-08-03T18:18:54.664Z,32.40
2022-08-03T18:22:02.966Z,32.40
2022-08-03T18:24:49.671Z,32.30
2022-08-03T18:27:42.795Z,32.20
2022-08-03T18:30:32.319Z,32.10
2022-08-03T18:34:19.728Z,31.90
2022-08-03T18:36:30.534Z,31.90
2022-08-03T18:39:17.909Z,31.60
2022-08-03T18:42:07.801Z,31.40
2022-08-03T18:45:15.031Z,31.30
2022-08-03T18:48:27.115Z,31.10
2022-08-03T18:51:28.678Z,30.90
2022-08-03T18:54:51.002Z,30.80
2022-08-03T18:57:46.464Z,30.60
2022-08-03T19:00:54.399Z,30.50
2022-08-03T19:03:44.633Z,30.30
2022-08-03T19:06:32.185Z,30.20
2022-08-03T19:09:40.481Z,30.00
2022-08-03T19:12:56.031Z,29.80
2022-08-03T19:15:51.481Z,29.60
2022-08-03T19:18:38.947Z,31.10
2022-08-03T19:21:24.962Z,29.40
2022-08-03T19:24:13.707Z,29.40
2022-08-03T19:27:01.393Z,29.20
2022-08-03T19:29:58.051Z,29.00
2022-08-03T19:32:48.258Z,28.80
2022-08-03T19:35:51.806Z,28.60
2022-08-03T19:38:39.820Z,28.40
2022-08-03T19:41:41.702Z,28.20
2022-08-03T19:44:31.099Z,28.10
2022-08-03T19:47:32.171Z,28.00
2022-08-03T19:50:20.712Z,27.90
2022-08-03T19:53:11.924Z,27.80
2022-08-03T19:55:59.518Z,27.60
2022-08-03T19:58:45.434Z,27.50
2022-08-03T20:01:51.014Z,27.50
2022-08-03T20:04:38.079Z,27.50
2022-08-03T20:07:25.928Z,27.30
2022-08-03T20:10:11.543Z,27.20
2022-08-03T20:12:57.841Z,27.10
2022-08-03T20:15:43.450Z,26.90
2022-08-03T20:18:34.695Z,26.40
2022-08-03T20:21:27.732Z,26.90
2022-08-03T20:24:25.477Z,26.90
2022-08-03T20:27:14.765Z,26.80
2022-08-03T20:30:06.445Z,26.80
2022-08-03T20:33:07.702Z,26.70
2022-08-03T20:35:53.178Z,26.60
2022-08-03T20:38:47.154Z,26.40
2022-08-03T20:41:34.110Z,26.30
2022-08-03T20:44:25.592Z,26.30
2022-08-03T20:47:13.686Z,26.20
2022-08-03T20:50:10.414Z,26.40
2022-08-03T20:52:57.147Z,27.60
2022-08-03T20:55:47.483Z,26.20
2022-08-03T20:58:50.781Z,26.10
2022-08-03T21:01:37.212Z,26.00
2022-08-03T21:04:22.612Z,26.00
2022-08-03T21:10:24.710Z,25.90
2022-08-03T21:13:12.959Z,25.90
2022-08-03T21:13:24.590Z,25.60
2022-08-03T21:16:15.080Z,25.50
2022-08-03T21:19:03.518Z,25.50
2022-08-03T21:21:50.541Z,25.40
2022-08-03T21:24:40.385Z,25.40
2022-08-03T21:27:29.581Z,25.30
2022-08-03T21:30:15.730Z,25.30
2022-08-03T21:33:01.544Z,25.20
2022-08-03T21:35:47.619Z,25.20
2022-08-03T21:38:34.873Z,25.10
2022-08-03T21:41:20.406Z,25.10
2022-08-03T21:44:07.909Z,25.00
2022-08-03T21:46:54.946Z,25.00
2022-08-03T21:50:05.078Z,24.90
2022-08-03T21:52:49.763Z,24.90
2022-08-03T21:55:38.836Z,25.80
2022-08-03T21:58:42.945Z,24.80
2022-08-03T22:01:29.438Z,24.80
2022-08-03T22:04:42.651Z,24.80
2022-08-03T22:07:29.387Z,24.70
2022-08-03T22:10:15.151Z,24.70
2022-08-03T22:13:00.960Z,24.70
2022-08-03T22:15:48.592Z,24.70
2022-08-03T22:18:38.775Z,24.70
2022-08-03T22:21:36.207Z,24.60
2022-08-03T22:24:28.128Z,24.60
2022-08-03T22:27:30.360Z,24.60
2022-08-03T22:30:18.045Z,24.50
2022-08-03T22:33:11.063Z,24.40
2022-08-03T22:35:58.985Z,24.30
2022-08-03T22:38:47.330Z,24.30
2022-08-03T22:41:32.821Z,24.20
2022-08-03T22:44:18.598Z,24.20
2022-08-03T22:47:05.372Z,24.10
2022-08-03T22:50:33.548Z,24.00
2022-08-03T22:52:58.508Z,24.00
2022-08-03T22:55:43.969Z,24.00
2022-08-03T22:58:29.118Z,24.00
2022-08-03T23:01:18.389Z,24.00
2022-08-03T23:04:05.875Z,24.00
2022-08-03T23:06:55.409Z,23.90
2022-08-03T23:09:44.545Z,23.90
2022-08-03T23:12:30.643Z,23.80
2022-08-03T23:15:17.368Z,23.80
2022-08-03T23:18:04.012Z,23.80
2022-08-03T23:20:54.434Z,23.70
2022-08-03T23:23:44.500Z,23.70
2022-08-03T23:26:31.068Z,23.60
2022-08-03T23:29:19.235Z,23.60
2022-08-03T23:32:06.040Z,23.50
2022-08-03T23:35:15.118Z,23.40
2022-08-03T23:38:21.495Z,23.40
2022-08-03T23:41:09.093Z,23.30
2022-08-03T23:43:55.863Z,23.20
2022-08-03T23:46:43.923Z,23.10
2022-08-03T23:49:29.474Z,23.10
2022-08-03T23:52:35.743Z,23.00
2022-08-03T23:55:32.675Z,23.70
2022-08-03T23:58:43.373Z,23.00
